Time;durP1;ratioP1;P1;durP2;ratioP2;P2;SDS_P1;SDS_P2;PMS_P1;PMS_P2;Temp;Humidity;BMP_temperature;BMP_pressure;BME280_temperature;BME280_humidity;BME280_pressure;Samples;Min_cycle;Max_cycle;Signal;HPM_P1;HPM_P2
2022/04/09 00:01:46;;;;;;;;;9.00;9.00;;;;;-147.47;100.00;64613.53;5075317;28;8839;-81
2022/04/09 00:04:12;;;;;;;;;9.33;9.33;;;;;-147.47;100.00;64613.53;5089839;28;9101;-79
2022/04/09 00:06:37;;;;;;;;;14.00;10.00;;;;;-147.47;100.00;64613.53;5089082;28;8826;-80
2022/04/09 00:09:03;;;;;;;;;10.00;7.00;;;;;-147.47;100.00;64613.53;5088986;28;8815;-80
2022/04/09 00:11:28;;;;;;;;;6.00;6.00;;;;;-147.47;100.00;64613.53;5089200;28;8807;-81
2022/04/09 00:13:53;;;;;;;;;5.67;5.67;;;;;-147.47;100.00;64613.53;5070383;28;8873;-78
2022/04/09 00:16:19;;;;;;;;;7.33;7.33;;;;;-147.47;100.00;64613.53;5088214;28;9515;-80
2022/04/09 00:18:44;;;;;;;;;10.67;8.67;;;;;-147.47;100.00;64613.53;5088683;28;8786;-78
2022/04/09 00:21:11;;;;;;;;;10.33;7.33;;;;;-147.47;100.00;64613.53;5088922;28;8838;-80
2022/04/09 00:23:36;;;;;;;;;9.67;8.00;;;;;-147.47;100.00;64613.53;5089280;28;9794;-79
2022/04/09 00:26:02;;;;;;;;;7.00;6.00;;;;;-147.47;100.00;64613.53;5088375;28;8923;-80
2022/04/09 00:28:27;;;;;;;;;8.00;8.00;;;;;-147.47;100.00;64613.53;5068747;28;8862;-80
2022/04/09 00:30:53;;;;;;;;;9.00;5.33;;;;;-147.47;100.00;64613.53;5072158;28;8833;-80
2022/04/09 00:33:18;;;;;;;;;7.00;7.00;;;;;-147.47;100.00;64613.53;5050668;28;9543;-80
2022/04/09 00:35:44;;;;;;;;;6.33;4.67;;;;;-147.47;100.00;64613.53;5075017;28;8826;-80
2022/04/09 00:38:09;;;;;;;;;5.67;5.67;;;;;-147.47;100.00;64613.53;5070418;28;8843;-80
2022/04/09 00:40:35;;;;;;;;;8.00;6.00;;;;;-147.47;100.00;64613.53;5080366;28;8825;-81
2022/04/09 00:43:00;;;;;;;;;9.33;8.00;;;;;-147.47;100.00;64613.53;5050158;28;8824;-80
2022/04/09 00:45:26;;;;;;;;;7.33;6.00;;;;;-147.47;100.00;64613.53;5051035;28;8840;-81
2022/04/09 00:47:52;;;;;;;;;9.67;5.33;;;;;-147.47;100.00;64613.53;5069103;28;8961;-79
2022/04/09 00:50:17;;;;;;;;;7.00;5.00;;;;;-147.47;100.00;64613.53;5069133;28;8812;-81
2022/04/09 00:52:52;;;;;;;;;6.33;6.33;;;;;-147.47;100.00;64613.53;5051097;28;8948;-81
2022/04/09 00:56:12;;;;;;;;;8.00;6.50;;;;;-147.47;100.00;64613.53;5051669;28;8866;-80
2022/04/09 00:58:12;;;;;;;;;11.00;9.00;;;;;-147.47;100.00;64613.53;5069229;28;8789;-81
2022/04/09 01:00:39;;;;;;;;;5.75;5.00;;;;;-147.47;100.00;64613.53;5069186;28;8713;-80
2022/04/09 01:03:04;;;;;;;;;6.50;6.50;;;;;-147.47;100.00;64613.53;5069281;28;8807;-79
2022/04/09 01:05:30;;;;;;;;;10.33;9.00;;;;;-147.47;100.00;64613.53;5053351;28;40104;-80
2022/04/09 01:07:56;;;;;;;;;8.33;5.67;;;;;-147.47;100.00;64613.53;5081282;28;46029;-80
2022/04/09 01:10:21;;;;;;;;;4.00;4.00;;;;;-147.47;100.00;64613.53;5089087;28;8806;-80
2022/04/09 01:12:47;;;;;;;;;4.00;4.00;;;;;-147.47;100.00;64613.53;5081991;28;8787;-80
2022/04/09 01:15:12;;;;;;;;;7.00;5.00;;;;;-147.47;100.00;64613.53;5071270;28;8826;-78
2022/04/09 01:17:38;;;;;;;;;4.33;3.67;;;;;-147.47;100.00;64613.53;5088562;28;8795;-81
2022/04/09 01:20:20;;;;;;;;;3.00;3.00;;;;;-147.47;100.00;64613.53;5090676;28;8826;-78
2022/04/09 01:22:46;;;;;;;;;6.00;4.25;;;;;-147.47;100.00;64613.53;5089529;28;8766;-80
2022/04/09 01:25:11;;;;;;;;;4.00;3.00;;;;;-147.47;100.00;64613.53;5088262;28;8822;-80
2022/04/09 01:27:40;;;;;;;;;2.00;2.00;;;;;-147.47;100.00;64613.53;5088111;28;8824;-79
2022/04/09 01:30:06;;;;;;;;;1.75;1.00;;;;;-147.47;100.00;64613.53;5088794;28;8810;-80
2022/04/09 01:32:32;;;;;;;;;2.00;1.00;;;;;-147.47;100.00;64613.53;5087536;28;8837;-80
2022/04/09 01:35:02;;;;;;;;;2.00;2.00;;;;;-147.47;100.00;64613.53;5087871;28;9644;-78
2022/04/09 01:37:28;;;;;;;;;2.25;2.00;;;;;-147.47;100.00;64613.53;5089683;28;8803;-80
2022/04/09 01:39:54;;;;;;;;;2.00;1.75;;;;;-147.47;100.00;64613.53;5070025;28;8883;-80
2022/04/09 01:42:21;;;;;;;;;3.00;3.00;;;;;-147.47;100.00;64613.53;5088091;28;8787;-80
2022/04/09 01:44:47;;;;;;;;;4.00;3.00;;;;;-147.47;100.00;64613.53;5078271;28;8838;-81
2022/04/09 01:47:13;;;;;;;;;4.75;3.00;;;;;-147.47;100.00;64613.53;5087000;28;8739;-80
2022/04/09 01:49:38;;;;;;;;;5.00;4.00;;;;;-147.47;100.00;64613.53;5088150;28;8786;-80
2022/04/09 01:52:05;;;;;;;;;3.67;3.67;;;;;-147.47;100.00;64613.53;5087325;28;8837;-81
2022/04/09 01:54:30;;;;;;;;;5.00;3.75;;;;;-147.47;100.00;64613.53;5090062;28;8787;-80
2022/04/09 01:56:56;;;;;;;;;3.00;3.00;;;;;-147.47;100.00;64613.53;5091724;28;8790;-79
2022/04/09 01:59:21;;;;;;;;;5.00;3.00;;;;;-147.47;100.00;64613.53;5090694;28;8853;-81
2022/04/09 02:01:48;;;;;;;;;3.00;3.00;;;;;-147.47;100.00;64613.53;5090268;28;8862;-79
2022/04/09 02:04:15;;;;;;;;;4.25;3.00;;;;;-147.47;100.00;64613.53;5091307;28;8787;-79
2022/04/09 02:06:42;;;;;;;;;4.00;4.00;;;;;-147.47;100.00;64613.53;5091573;28;8735;-79
2022/04/09 02:09:13;;;;;;;;;4.25;4.25;;;;;-147.47;100.00;64613.53;5089520;28;8805;-80
2022/04/09 02:11:42;;;;;;;;;3.25;3.25;;;;;-147.47;100.00;64613.53;5090638;28;8972;-79
2022/04/09 02:14:09;;;;;;;;;5.25;5.25;;;;;-147.47;100.00;64613.53;5072715;28;8802;-79
2022/04/09 02:16:35;;;;;;;;;5.00;3.75;;;;;-147.47;100.00;64613.53;5091290;28;8822;-80
2022/04/09 02:19:01;;;;;;;;;4.50;4.25;;;;;-147.47;100.00;64613.53;5090829;28;8743;-79
2022/04/09 02:21:27;;;;;;;;;3.25;3.25;;;;;-147.47;100.00;64613.53;5090184;28;8798;-79
2022/04/09 02:23:52;;;;;;;;;5.00;4.00;;;;;-147.47;100.00;64613.53;5091056;28;8783;-78
2022/04/09 02:26:18;;;;;;;;;4.00;4.00;;;;;-147.47;100.00;64613.53;5090948;28;8826;-77
2022/04/09 02:28:46;;;;;;;;;3.67;3.33;;;;;-147.47;100.00;64613.53;5090734;28;8819;-79
2022/04/09 02:31:12;;;;;;;;;6.00;4.25;;;;;-147.47;100.00;64613.53;5074003;28;8868;-78
2022/04/09 02:33:38;;;;;;;;;5.33;4.33;;;;;-147.47;100.00;64613.53;5091855;28;8779;-78
2022/04/09 02:36:05;;;;;;;;;12.00;10.00;;;;;-147.47;100.00;64613.53;5073120;28;11445;-77
2022/04/09 02:38:31;;;;;;;;;12.75;10.50;;;;;-147.47;100.00;64613.53;5091770;28;8771;-77
2022/04/09 02:40:57;;;;;;;;;7.00;6.67;;;;;-147.47;100.00;64613.53;5092593;28;8775;-81
2022/04/09 02:43:22;;;;;;;;;5.67;4.67;;;;;-147.47;100.00;64613.53;5073162;28;11437;-81
2022/04/09 02:45:48;;;;;;;;;7.00;5.00;;;;;-147.47;100.00;64613.53;5090829;28;8905;-81
2022/04/09 02:48:15;;;;;;;;;8.00;8.00;;;;;-147.47;100.00;64613.53;5092456;28;9311;-80
2022/04/09 02:50:40;;;;;;;;;6.00;4.00;;;;;-147.47;100.00;64613.53;5090359;28;8771;-80
2022/04/09 02:53:09;;;;;;;;;5.67;5.67;;;;;-147.47;100.00;64613.53;5090798;28;8803;-82
2022/04/09 02:55:34;;;;;;;;;6.25;4.75;;;;;-147.47;100.00;64613.53;5071597;28;8799;-81
2022/04/09 02:58:01;;;;;;;;;7.67;6.33;;;;;-147.47;100.00;64613.53;5093818;28;8787;-80
2022/04/09 03:00:27;;;;;;;;;10.50;8.75;;;;;-147.47;100.00;64613.53;5091643;28;8767;-81
2022/04/09 03:02:52;;;;;;;;;5.00;5.00;;;;;-147.47;100.00;64613.53;5090714;28;8791;-82
2022/04/09 03:05:19;;;;;;;;;7.67;7.67;;;;;-147.47;100.00;64613.53;5089945;28;8832;-81
2022/04/09 03:07:44;;;;;;;;;7.50;7.25;;;;;-147.47;100.00;64613.53;5076705;28;8779;-82
2022/04/09 03:10:13;;;;;;;;;8.33;6.00;;;;;-147.47;100.00;64613.53;5093528;28;8822;-82
2022/04/09 03:12:46;;;;;;;;;10.00;8.00;;;;;-147.47;100.00;64613.53;5073598;28;8807;-81
2022/04/09 03:15:12;;;;;;;;;5.75;5.75;;;;;-147.47;100.00;64613.53;5074199;28;8921;-80
2022/04/09 03:17:37;;;;;;;;;8.33;8.00;;;;;-147.47;100.00;64613.53;5090217;28;8802;-81
2022/04/09 03:20:04;;;;;;;;;8.67;7.67;;;;;-147.47;100.00;64613.53;5091314;28;11446;-82
2022/04/09 03:22:30;;;;;;;;;10.00;8.25;;;;;-147.47;100.00;64613.53;5091770;28;8795;-81
2022/04/09 03:25:02;;;;;;;;;8.25;7.50;;;;;-147.47;100.00;64613.53;5072445;28;8876;-80
2022/04/09 03:27:29;;;;;;;;;7.25;7.00;;;;;-147.47;100.00;64613.53;5091809;28;9598;-80
2022/04/09 03:29:55;;;;;;;;;8.75;7.75;;;;;-147.47;100.00;64613.53;5090976;28;8763;-81
2022/04/09 03:32:21;;;;;;;;;9.75;9.00;;;;;-147.47;100.00;64613.53;5090917;28;10385;-81
2022/04/09 03:34:47;;;;;;;;;5.25;5.25;;;;;-147.47;100.00;64613.53;5089390;28;8931;-82
2022/04/09 03:37:13;;;;;;;;;10.67;8.00;;;;;-147.47;100.00;64613.53;5083161;28;9491;-82
2022/04/09 03:39:41;;;;;;;;;13.00;10.67;;;;;-147.47;100.00;64613.53;5090873;28;8829;-80
2022/04/09 03:42:07;;;;;;;;;7.75;7.75;;;;;-147.47;100.00;64613.53;5090600;28;8825;-79
2022/04/09 03:44:33;;;;;;;;;5.67;5.67;;;;;-147.47;100.00;64613.53;5074187;28;8779;-80
2022/04/09 03:46:59;;;;;;;;;7.00;7.00;;;;;-147.47;100.00;64613.53;5089507;28;9999;-80
2022/04/09 03:49:25;;;;;;;;;8.00;8.00;;;;;-147.47;100.00;64613.53;5071148;28;8787;-80
2022/04/09 03:51:51;;;;;;;;;7.25;7.00;;;;;-147.47;100.00;64613.53;5092998;28;8842;-80
2022/04/09 03:54:16;;;;;;;;;7.33;7.33;;;;;-147.47;100.00;64613.53;5088512;28;8921;-80
2022/04/09 03:56:43;;;;;;;;;9.33;7.00;;;;;-147.47;100.00;64613.53;5088536;28;8896;-78
2022/04/09 03:59:09;;;;;;;;;9.50;8.75;;;;;-147.47;100.00;64613.53;5088322;28;8767;-78
2022/04/09 04:01:35;;;;;;;;;8.67;7.33;;;;;-147.47;100.00;64613.53;5089816;28;8933;-80
2022/04/09 04:04:01;;;;;;;;;9.50;9.50;;;;;-147.47;100.00;64613.53;5089690;28;8763;-78
2022/04/09 04:06:27;;;;;;;;;9.00;9.00;;;;;-147.47;100.00;64613.53;5074192;28;8832;-77
2022/04/09 04:08:52;;;;;;;;;8.33;8.00;;;;;-147.47;100.00;64613.53;5089623;28;11455;-77
2022/04/09 04:11:18;;;;;;;;;5.33;5.33;;;;;-147.47;100.00;64613.53;5090536;28;8805;-78
2022/04/09 04:13:43;;;;;;;;;11.33;10.33;;;;;-147.47;100.00;64613.53;5089397;28;8965;-81
2022/04/09 04:16:09;;;;;;;;;8.33;8.33;;;;;-147.47;100.00;64613.53;5089317;28;8792;-81
2022/04/09 04:18:36;;;;;;;;;8.00;8.00;;;;;-147.47;100.00;64613.53;5105726;28;8931;-81
2022/04/09 04:21:02;;;;;;;;;11.75;10.25;;;;;-147.47;100.00;64613.53;5108872;28;8788;-82
2022/04/09 04:23:27;;;;;;;;;12.00;11.00;;;;;-147.47;100.00;64613.53;5110530;28;8779;-81
2022/04/09 04:25:53;;;;;;;;;13.33;13.33;;;;;-147.47;100.00;64613.53;5090234;28;8832;-78
2022/04/09 04:28:18;;;;;;;;;13.33;13.33;;;;;-147.47;100.00;64613.53;5097158;28;8811;-78
2022/04/09 04:30:44;;;;;;;;;12.00;9.33;;;;;-147.47;100.00;64613.53;5070264;28;8874;-78
2022/04/09 04:33:09;;;;;;;;;11.00;8.00;;;;;-147.47;100.00;64613.53;5087916;28;8826;-78
2022/04/09 04:35:35;;;;;;;;;9.33;9.33;;;;;-147.47;100.00;64613.53;5088327;28;8802;-79
2022/04/09 04:38:00;;;;;;;;;13.67;13.00;;;;;-147.47;100.00;64613.53;5088668;28;8807;-80
2022/04/09 04:40:25;;;;;;;;;14.00;11.67;;;;;-147.47;100.00;64613.53;5067737;28;8826;-81
2022/04/09 04:42:51;;;;;;;;;12.33;12.33;;;;;-147.47;100.00;64613.53;5070022;28;8814;-79
2022/04/09 04:45:16;;;;;;;;;10.33;10.33;;;;;-147.47;100.00;64613.53;5085637;28;8815;-82
2022/04/09 04:47:46;;;;;;;;;12.67;11.33;;;;;-147.47;100.00;64613.53;5063860;28;8837;-81
2022/04/09 04:50:13;;;;;;;;;14.25;14.25;;;;;-147.47;100.00;64613.53;5082539;28;8977;-82
2022/04/09 04:52:39;;;;;;;;;12.75;11.75;;;;;-147.47;100.00;64613.53;5085392;28;8792;-82
2022/04/09 04:55:05;;;;;;;;;13.00;12.67;;;;;-147.47;100.00;64613.53;5081459;28;8783;-82
2022/04/09 04:57:44;;;;;;;;;15.67;13.67;;;;;-147.47;100.00;64613.53;5085097;28;10891;-80
2022/04/09 05:00:10;;;;;;;;;14.75;14.50;;;;;-147.47;100.00;64613.53;5080164;28;8845;-81
2022/04/09 05:02:36;;;;;;;;;13.00;13.00;;;;;-147.47;100.00;64613.53;5072826;28;8830;-75
2022/04/09 05:05:02;;;;;;;;;12.67;12.33;;;;;-147.47;100.00;64613.53;5079686;28;8842;-74
2022/04/09 05:07:40;;;;;;;;;15.67;13.67;;;;;-147.47;100.00;64613.53;5082719;28;8869;-74
2022/04/09 05:10:11;;;;;;;;;16.25;13.75;;;;;-147.47;100.00;64613.53;5083496;28;8949;-73
2022/04/09 05:12:37;;;;;;;;;15.50;13.50;;;;;-147.47;100.00;64613.53;5082988;28;8838;-73
2022/04/09 05:15:04;;;;;;;;;14.25;14.00;;;;;-147.47;100.00;64613.53;5082649;28;8835;-73
2022/04/09 05:17:30;;;;;;;;;15.00;14.00;;;;;-147.47;100.00;64613.53;5078251;28;8830;-72
2022/04/09 05:19:55;;;;;;;;;16.67;14.33;;;;;-147.47;100.00;64613.53;5085446;28;8861;-74
2022/04/09 05:22:21;;;;;;;;;15.00;15.00;;;;;-147.47;100.00;64613.53;5081219;28;8850;-74
2022/04/09 05:24:46;;;;;;;;;11.00;11.00;;;;;-147.47;100.00;64613.53;5080407;28;9568;-75
2022/04/09 05:27:12;;;;;;;;;13.33;10.67;;;;;-147.47;100.00;64613.53;5058971;28;9012;-75
2022/04/09 05:29:37;;;;;;;;;17.00;16.00;;;;;-147.47;100.00;64613.53;5077873;28;8823;-75
2022/04/09 05:32:04;;;;;;;;;15.00;15.00;;;;;-147.47;100.00;64613.53;5084479;28;8830;-74
2022/04/09 05:34:29;;;;;;;;;15.67;14.00;;;;;-147.47;100.00;64613.53;5087786;28;8790;-76
2022/04/09 05:36:55;;;;;;;;;16.67;13.33;;;;;-147.47;100.00;64613.53;5088407;28;8963;-73
2022/04/09 05:39:20;;;;;;;;;17.67;16.67;;;;;-147.47;100.00;64613.53;5089944;28;8920;-76
2022/04/09 05:41:45;;;;;;;;;16.00;16.00;;;;;-147.47;100.00;64613.53;5063641;28;8951;-75
2022/04/09 05:44:11;;;;;;;;;14.67;13.67;;;;;-147.47;100.00;64613.53;5087462;28;8834;-75
2022/04/09 05:46:36;;;;;;;;;14.00;14.00;;;;;-147.47;100.00;64613.53;5083363;28;8854;-76
2022/04/09 05:49:02;;;;;;;;;12.00;11.67;;;;;-147.47;100.00;64613.53;5081344;28;8873;-73
2022/04/09 05:51:28;;;;;;;;;16.33;15.00;;;;;-147.47;100.00;64613.53;5080119;28;8820;-75
2022/04/09 05:53:55;;;;;;;;;17.67;16.00;;;;;-147.47;100.00;64613.53;5088141;28;11559;-76
2022/04/09 05:56:21;;;;;;;;;17.50;14.50;;;;;-147.47;100.00;64613.53;5079459;28;8810;-74
2022/04/09 05:58:46;;;;;;;;;20.67;15.00;;;;;-147.47;100.00;64613.53;5068807;28;10061;-76
2022/04/09 06:01:12;;;;;;;;;16.00;16.00;;;;;-147.47;100.00;64613.53;5069479;28;8842;-75
2022/04/09 06:03:38;;;;;;;;;12.00;12.00;;;;;-147.47;100.00;64613.53;5056204;28;8823;-75
2022/04/09 06:06:04;;;;;;;;;8.25;8.25;;;;;-147.47;100.00;64613.53;5062574;28;8817;-75
2022/04/09 06:08:31;;;;;;;;;11.67;10.67;;;;;-147.47;100.00;64613.53;5060813;28;8839;-76
2022/04/09 06:10:57;;;;;;;;;13.00;12.50;;;;;-147.47;100.00;64613.53;5071831;28;8928;-74
2022/04/09 06:13:22;;;;;;;;;12.00;10.67;;;;;-147.47;100.00;64613.53;5057848;28;8812;-74
2022/04/09 06:15:47;;;;;;;;;14.33;11.33;;;;;-147.47;100.00;64613.53;5060146;28;8817;-76
2022/04/09 06:18:14;;;;;;;;;10.00;10.00;;;;;-147.47;100.00;64613.53;5056613;28;8856;-75
2022/04/09 06:20:40;;;;;;;;;11.00;11.00;;;;;-147.47;100.00;64613.53;5060599;28;8900;-75
2022/04/09 06:23:06;;;;;;;;;12.33;11.33;;;;;-147.47;100.00;64613.53;5055689;28;8848;-75
2022/04/09 06:25:31;;;;;;;;;14.33;14.33;;;;;-147.47;100.00;64613.53;5081070;28;8940;-75
2022/04/09 06:27:57;;;;;;;;;16.33;14.00;;;;;-147.47;100.00;64613.53;5065504;28;11514;-75
2022/04/09 06:30:22;;;;;;;;;20.67;14.33;;;;;-147.47;100.00;64613.53;5070053;28;8813;-76
2022/04/09 06:32:48;;;;;;;;;10.33;10.33;;;;;-147.47;100.00;64613.53;5063182;28;8908;-76
2022/04/09 06:35:14;;;;;;;;;11.33;11.33;;;;;-147.47;100.00;64613.53;5074533;28;8894;-73
2022/04/09 06:37:40;;;;;;;;;13.25;11.25;;;;;-147.47;100.00;64613.53;5050400;28;8816;-75
2022/04/09 06:40:09;;;;;;;;;10.67;10.67;;;;;-147.47;100.00;64613.53;5060348;28;8801;-75
2022/04/09 06:42:46;;;;;;;;;13.25;12.00;;;;;-147.47;100.00;64613.53;5054044;28;8827;-75
2022/04/09 06:45:13;;;;;;;;;8.67;8.67;;;;;-147.47;100.00;64613.53;5058038;28;9068;-75
2022/04/09 06:47:39;;;;;;;;;11.75;10.00;;;;;-147.47;100.00;64613.53;5057418;28;9730;-77
2022/04/09 06:50:09;;;;;;;;;12.00;11.00;;;;;-147.47;100.00;64613.53;5057317;28;9733;-78
2022/04/09 06:52:35;;;;;;;;;14.00;14.00;;;;;-147.47;100.00;64613.53;5057139;28;8816;-77
2022/04/09 06:55:02;;;;;;;;;16.25;15.00;;;;;-147.47;100.00;64613.53;5062775;28;8788;-75
2022/04/09 06:57:28;;;;;;;;;18.00;18.00;;;;;-147.47;100.00;64613.53;5061919;28;8773;-76
2022/04/09 06:59:57;;;;;;;;;19.75;17.50;;;;;-147.47;100.00;64613.53;5061166;28;8781;-75
2022/04/09 07:02:23;;;;;;;;;15.75;15.25;;;;;-147.47;100.00;64613.53;5057950;28;8796;-75
2022/04/09 07:04:49;;;;;;;;;12.00;11.00;;;;;-147.47;100.00;64613.53;5060556;28;8843;-75
2022/04/09 07:07:22;;;;;;;;;14.00;11.00;;;;;-147.47;100.00;64613.53;5056272;28;8840;-77
2022/04/09 07:09:48;;;;;;;;;11.25;11.25;;;;;-147.47;100.00;64613.53;5057782;28;9753;-75
2022/04/09 07:12:13;;;;;;;;;9.67;9.67;;;;;-147.47;100.00;64613.53;5058929;28;8809;-76
2022/04/09 07:14:39;;;;;;;;;12.00;11.00;;;;;-147.47;100.00;64613.53;5056434;28;8886;-76
2022/04/09 07:17:05;;;;;;;;;10.00;8.67;;;;;-147.47;100.00;64613.53;5063285;28;8834;-76
2022/04/09 07:19:30;;;;;;;;;11.00;9.33;;;;;-147.47;100.00;64613.53;5054010;28;8808;-76
2022/04/09 07:21:56;;;;;;;;;13.00;10.33;;;;;-147.47;100.00;64613.53;5059405;28;8937;-77
2022/04/09 07:24:21;;;;;;;;;13.00;11.00;;;;;-147.47;100.00;64613.53;5059840;28;8840;-76
2022/04/09 07:26:47;;;;;;;;;12.00;9.67;;;;;-147.47;100.00;64613.53;5051245;28;9439;-78
2022/04/09 07:29:12;;;;;;;;;11.33;10.00;;;;;-147.47;100.00;64613.53;5058659;28;8809;-76
2022/04/09 07:31:38;;;;;;;;;11.00;10.00;;;;;-147.47;100.00;64613.53;5059608;28;8805;-79
2022/04/09 07:34:03;;;;;;;;;11.00;11.00;;;;;-147.47;100.00;64613.53;5059926;28;8809;-75
2022/04/09 07:36:29;;;;;;;;;10.00;10.00;;;;;-147.47;100.00;64613.53;5060459;28;8827;-78
2022/04/09 07:38:55;;;;;;;;;11.00;10.00;;;;;-147.47;100.00;64613.53;5068370;28;8824;-75
2022/04/09 07:41:21;;;;;;;;;9.00;9.00;;;;;-147.47;100.00;64613.53;5060880;28;8748;-76
2022/04/09 07:43:46;;;;;;;;;8.67;8.67;;;;;-147.47;100.00;64613.53;5051202;28;8824;-75
2022/04/09 07:46:12;;;;;;;;;14.67;11.67;;;;;-147.47;100.00;64613.53;5054521;28;8860;-75
2022/04/09 07:48:37;;;;;;;;;10.67;10.67;;;;;-147.47;100.00;64613.53;5054921;28;8839;-76
2022/04/09 07:51:03;;;;;;;;;13.33;13.33;;;;;-147.47;100.00;64613.53;5048309;28;8828;-76
2022/04/09 07:53:29;;;;;;;;;11.00;11.00;;;;;-147.47;100.00;64613.53;5051808;28;8800;-75
2022/04/09 07:55:54;;;;;;;;;12.00;11.00;;;;;-147.47;100.00;64613.53;5050364;28;8832;-76
2022/04/09 07:58:20;;;;;;;;;11.00;11.00;;;;;-147.47;100.00;64613.53;5053458;28;8840;-77
2022/04/09 08:00:46;;;;;;;;;14.67;13.33;;;;;-147.47;100.00;64613.53;5053839;28;8824;-77
2022/04/09 08:03:11;;;;;;;;;15.33;11.00;;;;;-147.47;100.00;64613.53;5054806;28;8890;-78
2022/04/09 08:05:37;;;;;;;;;16.33;13.33;;;;;-147.47;100.00;64613.53;5052969;28;8824;-76
2022/04/09 08:08:04;;;;;;;;;12.33;11.00;;;;;-147.47;100.00;64613.53;5057065;28;12287;-75
2022/04/09 08:10:30;;;;;;;;;10.25;9.25;;;;;-147.47;100.00;64613.53;5048290;28;8825;-76
2022/04/09 08:12:56;;;;;;;;;14.33;13.33;;;;;-147.47;100.00;64613.53;5048765;28;8864;-76
2022/04/09 08:15:23;;;;;;;;;13.00;11.00;;;;;-147.47;100.00;64613.53;5056644;28;8824;-76
2022/04/09 08:17:49;;;;;;;;;13.00;13.00;;;;;-147.47;100.00;64613.53;5054436;28;8850;-76
2022/04/09 08:20:18;;;;;;;;;13.75;13.75;;;;;-147.47;100.00;64613.53;5052617;28;8927;-76
2022/04/09 08:22:44;;;;;;;;;13.50;11.25;;;;;-147.47;100.00;64613.53;5064060;28;8769;-79
2022/04/09 08:25:09;;;;;;;;;11.67;11.00;;;;;-147.47;100.00;64613.53;5059310;28;8835;-76
2022/04/09 08:27:35;;;;;;;;;18.33;16.33;;;;;-147.47;100.00;64613.53;5061419;28;8815;-81
2022/04/09 08:30:03;;;;;;;;;11.67;11.33;;;;;-147.47;100.00;64613.53;5060311;28;8870;-77
2022/04/09 08:32:29;;;;;;;;;10.50;9.50;;;;;-147.47;100.00;64613.53;5058125;28;8832;-81
2022/04/09 08:34:55;;;;;;;;;18.00;15.67;;;;;-147.47;100.00;64613.53;5062311;28;8841;-77
2022/04/09 08:37:22;;;;;;;;;17.67;16.67;;;;;-147.47;100.00;64613.53;5061934;28;8836;-75
2022/04/09 08:39:49;;;;;;;;;8.00;8.00;;;;;-147.47;100.00;64613.53;5060619;28;8816;-76
2022/04/09 08:42:14;;;;;;;;;11.50;9.50;;;;;-147.47;100.00;64613.53;5055773;28;8818;-73
2022/04/09 08:44:40;;;;;;;;;11.67;10.33;;;;;-147.47;100.00;64613.53;5055991;28;8817;-76
2022/04/09 08:47:05;;;;;;;;;19.67;15.33;;;;;-147.47;100.00;64613.53;5057854;28;8842;-74
2022/04/09 08:49:36;;;;;;;;;19.67;19.67;;;;;-147.47;100.00;64613.53;5056795;28;8839;-73
2022/04/09 08:52:05;;;;;;;;;19.00;14.75;;;;;-147.47;100.00;64613.53;5051876;28;8803;-75
2022/04/09 08:54:31;;;;;;;;;9.75;9.75;;;;;-147.47;100.00;64613.53;5057529;28;8889;-74
2022/04/09 08:56:56;;;;;;;;;15.00;14.00;;;;;-147.47;100.00;64613.53;5055007;28;8825;-77
2022/04/09 08:59:21;;;;;;;;;13.33;13.33;;;;;-147.47;100.00;64613.53;5052143;28;8898;-73
2022/04/09 09:01:47;;;;;;;;;14.00;11.00;;;;;-147.47;100.00;64613.53;5057338;28;8797;-75
2022/04/09 09:04:16;;;;;;;;;8.00;8.00;;;;;-147.47;100.00;64613.53;5058483;28;8860;-74
2022/04/09 09:06:45;;;;;;;;;13.25;11.75;;;;;-147.47;100.00;64613.53;5057220;28;8819;-74
2022/04/09 09:09:33;;;;;;;;;8.00;8.00;;;;;-147.47;100.00;64613.53;5056142;28;8803;-77
2022/04/09 09:12:00;;;;;;;;;10.50;10.50;;;;;-147.47;100.00;64613.53;5056377;28;8807;-76
2022/04/09 09:14:33;;;;;;;;;15.50;14.25;;;;;-147.47;100.00;64613.53;5053369;28;8777;-75
2022/04/09 09:17:02;;;;;;;;;10.00;9.00;;;;;-147.47;100.00;64613.53;5067579;28;8805;-74
2022/04/09 09:19:42;;;;;;;;;8.50;8.50;;;;;-147.47;100.00;64613.53;5053169;28;8799;-75
2022/04/09 09:22:09;;;;;;;;;8.50;8.50;;;;;-147.47;100.00;64613.53;5053881;28;8813;-74
2022/04/09 09:24:35;;;;;;;;;13.75;12.50;;;;;-147.47;100.00;64613.53;5060514;28;8775;-75
2022/04/09 09:27:02;;;;;;;;;15.00;15.00;;;;;-147.47;100.00;64613.53;5055662;28;8865;-78
2022/04/09 09:29:30;;;;;;;;;8.50;7.75;;;;;-147.47;100.00;64613.53;5059846;28;9805;-78
2022/04/09 09:32:01;;;;;;;;;10.00;10.00;;;;;-147.47;100.00;64613.53;5060981;28;8814;-79
2022/04/09 09:34:28;;;;;;;;;17.00;17.00;;;;;-147.47;100.00;64613.53;5060576;28;8802;-77
2022/04/09 09:36:56;;;;;;;;;13.50;9.75;;;;;-147.47;100.00;64613.53;5063208;28;9720;-86
2022/04/09 09:40:16;;;;;;;;;9.75;8.50;;;;;-147.47;100.00;64613.53;5070968;28;8860;-85
2022/04/09 09:43:17;;;;;;;;;13.00;11.50;;;;;-147.47;100.00;64613.53;5026970;28;8813;-84
2022/04/09 09:45:45;;;;;;;;;8.00;7.50;;;;;-147.47;100.00;64613.53;5012250;28;8821;-81
2022/04/09 09:48:55;;;;;;;;;8.00;5.75;;;;;-147.47;100.00;64613.53;5052766;28;8797;-86
2022/04/09 09:51:28;;;;;;;;;9.50;7.25;;;;;-147.47;100.00;64613.53;5061688;28;8799;-84
2022/04/09 09:54:18;;;;;;;;;6.00;6.00;;;;;-147.47;100.00;64613.53;5067593;28;8794;-84
2022/04/09 10:03:54;;;;;;;;;6.75;6.75;;;;;-147.47;100.00;64613.53;5026890;28;8779;-82
2022/04/09 10:07:48;;;;;;;;;;;;;;;;;;;;;
2022/04/09 10:17:26;;;;;;;;;6.75;6.25;;;;;-147.47;100.00;64613.53;4893345;28;8815;-81
2022/04/09 10:19:56;;;;;;;;;7.75;7.50;;;;;-147.47;100.00;64613.53;4980912;28;8849;-80
2022/04/09 10:22:27;;;;;;;;;10.00;10.00;;;;;-147.47;100.00;64613.53;4985068;28;8803;-80
2022/04/09 10:25:27;;;;;;;;;5.75;5.75;;;;;-147.47;100.00;64613.53;5063457;28;8800;-89
2022/04/09 10:31:01;;;;;;;;;8.00;8.00;;;;;-147.47;100.00;64613.53;5074860;28;8783;-81
2022/04/09 10:33:36;;;;;;;;;9.33;8.00;;;;;-147.47;100.00;64613.53;5064890;28;8907;-79
2022/04/09 10:36:02;;;;;;;;;6.75;6.75;;;;;-147.47;100.00;64613.53;5057405;28;8738;-76
2022/04/09 10:38:28;;;;;;;;;44.33;35.33;;;;;-147.47;100.00;64613.53;5061001;28;8825;-77
2022/04/09 10:40:55;;;;;;;;;35.67;30.33;;;;;-147.47;100.00;64613.53;5058713;28;8870;-79
2022/04/09 10:43:24;;;;;;;;;13.50;11.25;;;;;-147.47;100.00;64613.53;5062311;28;9258;-75
2022/04/09 10:46:02;;;;;;;;;56.25;46.00;;;;;-147.47;100.00;64613.53;5058406;28;8818;-79
2022/04/09 10:48:32;;;;;;;;;16.50;13.75;;;;;-147.47;100.00;64613.53;5070434;28;10154;-82
2022/04/09 10:51:06;;;;;;;;;15.00;14.75;;;;;-147.47;100.00;64613.53;5063919;28;8747;-79
2022/04/09 10:53:38;;;;;;;;;12.00;10.75;;;;;-147.47;100.00;64613.53;5063325;28;8826;-81
2022/04/09 10:56:42;;;;;;;;;11.50;9.00;;;;;-147.47;100.00;64613.53;5060067;28;8719;-89
2022/04/09 10:59:10;;;;;;;;;11.00;8.75;;;;;-147.47;100.00;64613.53;5050794;28;8868;-78
2022/04/09 11:01:51;;;;;;;;;19.25;18.00;;;;;-147.47;100.00;64613.53;5070081;28;8704;-79
2022/04/09 11:07:15;;;;;;;;;9.00;8.00;;;;;-147.47;100.00;64613.53;5069605;28;8774;-79
2022/04/09 11:09:41;;;;;;;;;14.00;14.00;;;;;-147.47;100.00;64613.53;5069336;28;8779;-77
2022/04/09 11:12:06;;;;;;;;;9.33;6.67;;;;;-147.47;100.00;64613.53;5070453;28;8823;-79
2022/04/09 11:14:55;;;;;;;;;14.33;13.33;;;;;-147.47;100.00;64613.53;5068040;28;8794;-78
2022/04/09 11:17:37;;;;;;;;;7.25;7.25;;;;;-147.47;100.00;64613.53;5053165;28;8825;-76
2022/04/09 11:20:11;;;;;;;;;6.75;6.75;;;;;-147.47;100.00;64613.53;5069603;28;8767;-78
2022/04/09 11:22:52;;;;;;;;;9.75;8.25;;;;;-147.47;100.00;64613.53;5069992;28;8809;-78
2022/04/09 11:25:22;;;;;;;;;11.50;9.50;;;;;-147.47;100.00;64613.53;5061588;28;8812;-80
2022/04/09 11:27:47;;;;;;;;;8.75;8.75;;;;;-147.47;100.00;64613.53;5067050;28;8835;-78
2022/04/09 11:30:13;;;;;;;;;10.00;10.00;;;;;-147.47;100.00;64613.53;5066282;28;8965;-77
2022/04/09 11:32:39;;;;;;;;;9.33;9.33;;;;;-147.47;100.00;64613.53;5061155;28;8835;-78
2022/04/09 11:35:08;;;;;;;;;9.33;9.33;;;;;-147.47;100.00;64613.53;5060215;28;8844;-77